sensor_id;sensor_type;location;lat;lon;timestamp;P1;durP1;ratioP1;P2;durP2;ratioP2
25780;SDS011;13626;48.128;11.628;2024-03-02T00:00:39;13.68;;;8.45;;
25780;SDS011;13626;48.128;11.628;2024-03-02T00:03:07;15.05;;;8.82;;
25780;SDS011;13626;48.128;11.628;2024-03-02T00:05:36;11.95;;;8.30;;
25780;SDS011;13626;48.128;11.628;2024-03-02T00:08:04;10.75;;;7.90;;
25780;SDS011;13626;48.128;11.628;2024-03-02T00:10:39;11.98;;;8.10;;
25780;SDS011;13626;48.128;11.628;2024-03-02T00:13:10;8.98;;;7.20;;
25780;SDS011;13626;48.128;11.628;2024-03-02T00:15:46;11.27;;;7.60;;
25780;SDS011;13626;48.128;11.628;2024-03-02T00:18:14;10.77;;;7.85;;
25780;SDS011;13626;48.128;11.628;2024-03-02T00:20:44;10.88;;;7.95;;
25780;SDS011;13626;48.128;11.628;2024-03-02T00:23:14;10.65;;;6.93;;
25780;SDS011;13626;48.128;11.628;2024-03-02T00:25:43;10.02;;;7.20;;
25780;SDS011;13626;48.128;11.628;2024-03-02T00:28:14;10.82;;;7.03;;
25780;SDS011;13626;48.128;11.628;2024-03-02T00:33:13;10.98;;;7.47;;
25780;SDS011;13626;48.128;11.628;2024-03-02T00:35:40;10.23;;;7.05;;
25780;SDS011;13626;48.128;11.628;2024-03-02T00:38:10;10.05;;;7.55;;
25780;SDS011;13626;48.128;11.628;2024-03-02T00:40:38;11.70;;;8.68;;
25780;SDS011;13626;48.128;11.628;2024-03-02T00:43:05;12.48;;;8.43;;
25780;SDS011;13626;48.128;11.628;2024-03-02T00:45:33;11.35;;;7.68;;
25780;SDS011;13626;48.128;11.628;2024-03-02T00:48:00;11.20;;;7.53;;
25780;SDS011;13626;48.128;11.628;2024-03-02T00:50:27;10.13;;;7.80;;
25780;SDS011;13626;48.128;11.628;2024-03-02T00:52:56;12.50;;;8.82;;
25780;SDS011;13626;48.128;11.628;2024-03-02T00:55:23;11.93;;;8.85;;
25780;SDS011;13626;48.128;11.628;2024-03-02T00:57:51;12.10;;;8.07;;
25780;SDS011;13626;48.128;11.628;2024-03-02T01:00:18;12.23;;;8.43;;
25780;SDS011;13626;48.128;11.628;2024-03-02T01:02:45;11.30;;;8.23;;
25780;SDS011;13626;48.128;11.628;2024-03-02T01:05:12;11.90;;;8.00;;
25780;SDS011;13626;48.128;11.628;2024-03-02T01:07:40;11.35;;;8.30;;
25780;SDS011;13626;48.128;11.628;2024-03-02T01:10:07;13.75;;;9.18;;
25780;SDS011;13626;48.128;11.628;2024-03-02T01:12:36;13.40;;;8.48;;
25780;SDS011;13626;48.128;11.628;2024-03-02T01:15:03;12.65;;;8.35;;
25780;SDS011;13626;48.128;11.628;2024-03-02T01:17:33;14.27;;;8.70;;
25780;SDS011;13626;48.128;11.628;2024-03-02T01:20:00;10.80;;;7.93;;
25780;SDS011;13626;48.128;11.628;2024-03-02T01:22:27;11.70;;;8.30;;
25780;SDS011;13626;48.128;11.628;2024-03-02T01:24:55;11.82;;;8.05;;
25780;SDS011;13626;48.128;11.628;2024-03-02T01:27:22;11.55;;;8.10;;
25780;SDS011;13626;48.128;11.628;2024-03-02T01:29:49;11.73;;;8.07;;
25780;SDS011;13626;48.128;11.628;2024-03-02T01:32:16;10.85;;;8.18;;
25780;SDS011;13626;48.128;11.628;2024-03-02T01:34:44;11.32;;;7.90;;
25780;SDS011;13626;48.128;11.628;2024-03-02T01:37:11;11.20;;;7.63;;
25780;SDS011;13626;48.128;11.628;2024-03-02T01:39:38;9.32;;;7.25;;
25780;SDS011;13626;48.128;11.628;2024-03-02T01:42:06;9.30;;;7.18;;
25780;SDS011;13626;48.128;11.628;2024-03-02T01:44:33;11.57;;;7.97;;
25780;SDS011;13626;48.128;11.628;2024-03-02T01:47:00;9.05;;;7.03;;
25780;SDS011;13626;48.128;11.628;2024-03-02T01:49:27;9.30;;;7.03;;
25780;SDS011;13626;48.128;11.628;2024-03-02T01:51:55;10.40;;;6.97;;
25780;SDS011;13626;48.128;11.628;2024-03-02T01:54:22;10.23;;;7.30;;
25780;SDS011;13626;48.128;11.628;2024-03-02T01:56:49;9.18;;;6.88;;
25780;SDS011;13626;48.128;11.628;2024-03-02T01:59:17;9.50;;;6.72;;
25780;SDS011;13626;48.128;11.628;2024-03-02T02:01:44;9.57;;;7.55;;
25780;SDS011;13626;48.128;11.628;2024-03-02T02:04:11;9.27;;;7.10;;
25780;SDS011;13626;48.128;11.628;2024-03-02T02:06:39;8.57;;;6.70;;
25780;SDS011;13626;48.128;11.628;2024-03-02T02:09:07;9.80;;;7.10;;
25780;SDS011;13626;48.128;11.628;2024-03-02T02:11:34;9.70;;;7.25;;
25780;SDS011;13626;48.128;11.628;2024-03-02T02:14:01;9.95;;;7.38;;
25780;SDS011;13626;48.128;11.628;2024-03-02T02:16:29;10.70;;;7.88;;
25780;SDS011;13626;48.128;11.628;2024-03-02T02:18:56;9.07;;;7.38;;
25780;SDS011;13626;48.128;11.628;2024-03-02T02:21:23;11.32;;;7.07;;
25780;SDS011;13626;48.128;11.628;2024-03-02T02:23:51;10.43;;;7.63;;
25780;SDS011;13626;48.128;11.628;2024-03-02T02:26:18;9.70;;;6.85;;
25780;SDS011;13626;48.128;11.628;2024-03-02T02:28:46;9.15;;;7.07;;
25780;SDS011;13626;48.128;11.628;2024-03-02T02:31:14;9.73;;;6.97;;
25780;SDS011;13626;48.128;11.628;2024-03-02T02:33:41;8.68;;;6.50;;
25780;SDS011;13626;48.128;11.628;2024-03-02T02:36:08;9.07;;;6.43;;
25780;SDS011;13626;48.128;11.628;2024-03-02T02:38:38;10.57;;;7.05;;
25780;SDS011;13626;48.128;11.628;2024-03-02T02:41:06;11.18;;;7.50;;
25780;SDS011;13626;48.128;11.628;2024-03-02T02:43:33;10.82;;;7.18;;
25780;SDS011;13626;48.128;11.628;2024-03-02T02:46:00;11.13;;;8.00;;
25780;SDS011;13626;48.128;11.628;2024-03-02T02:48:28;11.82;;;7.43;;
25780;SDS011;13626;48.128;11.628;2024-03-02T02:50:55;11.95;;;7.57;;
25780;SDS011;13626;48.128;11.628;2024-03-02T02:53:22;9.93;;;7.32;;
25780;SDS011;13626;48.128;11.628;2024-03-02T02:55:50;11.27;;;7.43;;
25780;SDS011;13626;48.128;11.628;2024-03-02T02:58:17;11.30;;;7.95;;
25780;SDS011;13626;48.128;11.628;2024-03-02T03:00:44;9.82;;;7.82;;
25780;SDS011;13626;48.128;11.628;2024-03-02T03:03:12;10.38;;;8.10;;
25780;SDS011;13626;48.128;11.628;2024-03-02T03:05:39;11.25;;;7.90;;
25780;SDS011;13626;48.128;11.628;2024-03-02T03:08:06;14.73;;;8.63;;
25780;SDS011;13626;48.128;11.628;2024-03-02T03:10:33;10.00;;;7.45;;
25780;SDS011;13626;48.128;11.628;2024-03-02T03:13:01;10.30;;;7.90;;
25780;SDS011;13626;48.128;11.628;2024-03-02T03:15:28;11.85;;;7.78;;
25780;SDS011;13626;48.128;11.628;2024-03-02T03:17:56;10.48;;;7.50;;
25780;SDS011;13626;48.128;11.628;2024-03-02T03:20:24;8.02;;;6.38;;
25780;SDS011;13626;48.128;11.628;2024-03-02T03:22:51;10.70;;;7.18;;
25780;SDS011;13626;48.128;11.628;2024-03-02T03:25:18;10.00;;;7.57;;
25780;SDS011;13626;48.128;11.628;2024-03-02T03:27:45;8.95;;;7.07;;
25780;SDS011;13626;48.128;11.628;2024-03-02T03:30:13;9.32;;;7.70;;
25780;SDS011;13626;48.128;11.628;2024-03-02T03:32:40;10.13;;;7.35;;
25780;SDS011;13626;48.128;11.628;2024-03-02T03:35:08;10.40;;;7.57;;
25780;SDS011;13626;48.128;11.628;2024-03-02T03:37:35;9.82;;;7.53;;
25780;SDS011;13626;48.128;11.628;2024-03-02T03:40:03;9.27;;;7.10;;
25780;SDS011;13626;48.128;11.628;2024-03-02T03:42:37;9.80;;;7.88;;
25780;SDS011;13626;48.128;11.628;2024-03-02T03:45:05;10.27;;;7.55;;
25780;SDS011;13626;48.128;11.628;2024-03-02T03:47:33;10.45;;;8.35;;
25780;SDS011;13626;48.128;11.628;2024-03-02T03:50:00;9.43;;;7.97;;
25780;SDS011;13626;48.128;11.628;2024-03-02T03:52:28;10.15;;;7.40;;
25780;SDS011;13626;48.128;11.628;2024-03-02T03:54:55;10.40;;;7.72;;
25780;SDS011;13626;48.128;11.628;2024-03-02T03:57:22;10.45;;;7.93;;
25780;SDS011;13626;48.128;11.628;2024-03-02T03:59:49;11.82;;;8.75;;
25780;SDS011;13626;48.128;11.628;2024-03-02T04:02:17;10.18;;;8.00;;
25780;SDS011;13626;48.128;11.628;2024-03-02T04:04:44;10.52;;;7.60;;
25780;SDS011;13626;48.128;11.628;2024-03-02T04:07:12;10.95;;;7.97;;
25780;SDS011;13626;48.128;11.628;2024-03-02T04:09:39;10.55;;;8.23;;
25780;SDS011;13626;48.128;11.628;2024-03-02T04:12:07;9.75;;;7.95;;
25780;SDS011;13626;48.128;11.628;2024-03-02T04:14:34;10.57;;;7.97;;
25780;SDS011;13626;48.128;11.628;2024-03-02T04:17:01;10.05;;;7.78;;
25780;SDS011;13626;48.128;11.628;2024-03-02T04:19:28;11.82;;;8.20;;
25780;SDS011;13626;48.128;11.628;2024-03-02T04:21:56;11.52;;;8.38;;
25780;SDS011;13626;48.128;11.628;2024-03-02T04:24:26;12.13;;;8.25;;
25780;SDS011;13626;48.128;11.628;2024-03-02T04:26:53;11.32;;;8.32;;
25780;SDS011;13626;48.128;11.628;2024-03-02T04:29:21;10.25;;;7.70;;
25780;SDS011;13626;48.128;11.628;2024-03-02T04:31:48;9.40;;;7.75;;
25780;SDS011;13626;48.128;11.628;2024-03-02T04:34:15;11.40;;;8.40;;
25780;SDS011;13626;48.128;11.628;2024-03-02T04:36:43;10.20;;;8.23;;
25780;SDS011;13626;48.128;11.628;2024-03-02T04:39:10;11.73;;;8.48;;
25780;SDS011;13626;48.128;11.628;2024-03-02T04:41:37;11.38;;;8.70;;
25780;SDS011;13626;48.128;11.628;2024-03-02T04:44:04;11.10;;;8.27;;
25780;SDS011;13626;48.128;11.628;2024-03-02T04:46:34;12.55;;;8.85;;
25780;SDS011;13626;48.128;11.628;2024-03-02T04:49:01;12.25;;;8.65;;
25780;SDS011;13626;48.128;11.628;2024-03-02T04:51:28;13.05;;;9.95;;
25780;SDS011;13626;48.128;11.628;2024-03-02T04:53:56;11.60;;;7.93;;
25780;SDS011;13626;48.128;11.628;2024-03-02T04:56:23;12.88;;;8.93;;
25780;SDS011;13626;48.128;11.628;2024-03-02T04:59:10;13.50;;;9.43;;
25780;SDS011;13626;48.128;11.628;2024-03-02T05:01:37;11.77;;;8.77;;
25780;SDS011;13626;48.128;11.628;2024-03-02T05:04:05;12.70;;;9.23;;
25780;SDS011;13626;48.128;11.628;2024-03-02T05:06:32;11.60;;;8.98;;
25780;SDS011;13626;48.128;11.628;2024-03-02T05:08:59;12.07;;;8.52;;
25780;SDS011;13626;48.128;11.628;2024-03-02T05:11:28;12.20;;;9.27;;
25780;SDS011;13626;48.128;11.628;2024-03-02T05:14:14;11.98;;;8.68;;
25780;SDS011;13626;48.128;11.628;2024-03-02T05:16:42;12.55;;;8.43;;
25780;SDS011;13626;48.128;11.628;2024-03-02T05:19:09;12.32;;;8.98;;
25780;SDS011;13626;48.128;11.628;2024-03-02T05:21:36;12.15;;;9.38;;
25780;SDS011;13626;48.128;11.628;2024-03-02T05:24:03;12.90;;;9.40;;
25780;SDS011;13626;48.128;11.628;2024-03-02T05:26:31;12.68;;;9.30;;
25780;SDS011;13626;48.128;11.628;2024-03-02T05:28:58;12.23;;;9.50;;
25780;SDS011;13626;48.128;11.628;2024-03-02T05:31:25;13.38;;;9.40;;
25780;SDS011;13626;48.128;11.628;2024-03-02T05:33:52;14.23;;;9.80;;
25780;SDS011;13626;48.128;11.628;2024-03-02T05:36:23;12.88;;;9.55;;
25780;SDS011;13626;48.128;11.628;2024-03-02T05:38:51;15.60;;;10.55;;
25780;SDS011;13626;48.128;11.628;2024-03-02T05:41:18;14.88;;;10.07;;
25780;SDS011;13626;48.128;11.628;2024-03-02T05:43:46;14.05;;;10.68;;
25780;SDS011;13626;48.128;11.628;2024-03-02T05:46:13;13.18;;;9.50;;
25780;SDS011;13626;48.128;11.628;2024-03-02T05:48:40;15.15;;;10.63;;
25780;SDS011;13626;48.128;11.628;2024-03-02T05:51:09;15.43;;;10.40;;
25780;SDS011;13626;48.128;11.628;2024-03-02T05:53:36;15.98;;;10.38;;
25780;SDS011;13626;48.128;11.628;2024-03-02T05:56:05;13.88;;;9.57;;
25780;SDS011;13626;48.128;11.628;2024-03-02T05:58:32;16.13;;;11.23;;
25780;SDS011;13626;48.128;11.628;2024-03-02T06:01:17;14.20;;;10.18;;
25780;SDS011;13626;48.128;11.628;2024-03-02T06:03:45;13.60;;;9.90;;
25780;SDS011;13626;48.128;11.628;2024-03-02T06:06:12;15.57;;;10.25;;
25780;SDS011;13626;48.128;11.628;2024-03-02T06:08:39;13.60;;;9.88;;
25780;SDS011;13626;48.128;11.628;2024-03-02T06:11:07;14.23;;;10.05;;
25780;SDS011;13626;48.128;11.628;2024-03-02T06:13:34;15.25;;;9.98;;
25780;SDS011;13626;48.128;11.628;2024-03-02T06:16:01;14.13;;;10.30;;
25780;SDS011;13626;48.128;11.628;2024-03-02T06:18:28;15.15;;;11.13;;
25780;SDS011;13626;48.128;11.628;2024-03-02T06:20:56;16.55;;;11.10;;
25780;SDS011;13626;48.128;11.628;2024-03-02T06:23:23;14.48;;;9.88;;
25780;SDS011;13626;48.128;11.628;2024-03-02T06:25:51;13.95;;;10.82;;
25780;SDS011;13626;48.128;11.628;2024-03-02T06:28:18;14.45;;;9.93;;
25780;SDS011;13626;48.128;11.628;2024-03-02T06:30:45;15.50;;;10.45;;
25780;SDS011;13626;48.128;11.628;2024-03-02T06:33:13;13.25;;;10.30;;
25780;SDS011;13626;48.128;11.628;2024-03-02T06:35:41;14.90;;;10.35;;
25780;SDS011;13626;48.128;11.628;2024-03-02T06:38:08;15.05;;;11.07;;
25780;SDS011;13626;48.128;11.628;2024-03-02T06:40:35;13.85;;;10.23;;
25780;SDS011;13626;48.128;11.628;2024-03-02T06:43:04;14.05;;;10.20;;
25780;SDS011;13626;48.128;11.628;2024-03-02T06:45:31;14.95;;;10.85;;
25780;SDS011;13626;48.128;11.628;2024-03-02T06:48:00;15.35;;;10.50;;
25780;SDS011;13626;48.128;11.628;2024-03-02T06:50:28;17.25;;;11.60;;
25780;SDS011;13626;48.128;11.628;2024-03-02T06:52:55;15.75;;;11.02;;
25780;SDS011;13626;48.128;11.628;2024-03-02T06:55:23;16.70;;;11.32;;
25780;SDS011;13626;48.128;11.628;2024-03-02T06:57:53;14.63;;;10.40;;
25780;SDS011;13626;48.128;11.628;2024-03-02T07:00:20;16.48;;;10.98;;
25780;SDS011;13626;48.128;11.628;2024-03-02T07:02:47;14.35;;;10.43;;
25780;SDS011;13626;48.128;11.628;2024-03-02T07:05:15;15.52;;;11.13;;
25780;SDS011;13626;48.128;11.628;2024-03-02T07:07:43;15.63;;;11.23;;
25780;SDS011;13626;48.128;11.628;2024-03-02T07:10:10;15.80;;;10.95;;
25780;SDS011;13626;48.128;11.628;2024-03-02T07:12:37;16.80;;;10.63;;
25780;SDS011;13626;48.128;11.628;2024-03-02T07:15:05;17.45;;;12.07;;
25780;SDS011;13626;48.128;11.628;2024-03-02T07:17:32;18.00;;;12.63;;
25780;SDS011;13626;48.128;11.628;2024-03-02T07:20:00;16.40;;;12.00;;
25780;SDS011;13626;48.128;11.628;2024-03-02T07:22:27;21.30;;;13.55;;
25780;SDS011;13626;48.128;11.628;2024-03-02T07:24:55;19.13;;;13.93;;
25780;SDS011;13626;48.128;11.628;2024-03-02T07:27:22;19.10;;;12.95;;
25780;SDS011;13626;48.128;11.628;2024-03-02T07:29:49;18.70;;;12.55;;
25780;SDS011;13626;48.128;11.628;2024-03-02T07:32:16;17.30;;;12.10;;
25780;SDS011;13626;48.128;11.628;2024-03-02T07:34:44;16.30;;;12.02;;
25780;SDS011;13626;48.128;11.628;2024-03-02T07:37:11;18.15;;;13.13;;
25780;SDS011;13626;48.128;11.628;2024-03-02T07:39:38;17.00;;;11.23;;
25780;SDS011;13626;48.128;11.628;2024-03-02T07:42:05;18.90;;;12.23;;
25780;SDS011;13626;48.128;11.628;2024-03-02T07:44:33;17.33;;;12.30;;
25780;SDS011;13626;48.128;11.628;2024-03-02T07:47:00;16.38;;;11.48;;
25780;SDS011;13626;48.128;11.628;2024-03-02T07:49:27;18.58;;;12.50;;
25780;SDS011;13626;48.128;11.628;2024-03-02T07:51:55;18.67;;;12.00;;
25780;SDS011;13626;48.128;11.628;2024-03-02T07:54:22;17.80;;;11.88;;
25780;SDS011;13626;48.128;11.628;2024-03-02T07:56:49;15.73;;;11.50;;
25780;SDS011;13626;48.128;11.628;2024-03-02T07:59:17;14.85;;;11.40;;
25780;SDS011;13626;48.128;11.628;2024-03-02T08:01:44;14.43;;;10.77;;
25780;SDS011;13626;48.128;11.628;2024-03-02T08:04:11;17.25;;;11.55;;
25780;SDS011;13626;48.128;11.628;2024-03-02T08:06:39;14.77;;;11.13;;
25780;SDS011;13626;48.128;11.628;2024-03-02T08:09:06;15.93;;;10.75;;
25780;SDS011;13626;48.128;11.628;2024-03-02T08:11:36;14.18;;;10.00;;
25780;SDS011;13626;48.128;11.628;2024-03-02T08:14:03;15.27;;;10.82;;
25780;SDS011;13626;48.128;11.628;2024-03-02T08:16:31;14.65;;;10.50;;
25780;SDS011;13626;48.128;11.628;2024-03-02T08:18:59;14.15;;;11.00;;
25780;SDS011;13626;48.128;11.628;2024-03-02T08:21:27;13.05;;;9.98;;
25780;SDS011;13626;48.128;11.628;2024-03-02T08:23:57;15.23;;;10.52;;
25780;SDS011;13626;48.128;11.628;2024-03-02T08:26:24;13.82;;;10.02;;
25780;SDS011;13626;48.128;11.628;2024-03-02T08:28:55;11.55;;;9.00;;
25780;SDS011;13626;48.128;11.628;2024-03-02T08:31:22;12.20;;;9.50;;
25780;SDS011;13626;48.128;11.628;2024-03-02T08:33:49;10.13;;;8.02;;
25780;SDS011;13626;48.128;11.628;2024-03-02T08:36:16;13.82;;;9.35;;
25780;SDS011;13626;48.128;11.628;2024-03-02T08:38:44;12.80;;;10.30;;
25780;SDS011;13626;48.128;11.628;2024-03-02T08:41:11;13.07;;;9.70;;
25780;SDS011;13626;48.128;11.628;2024-03-02T08:43:40;13.98;;;10.40;;
25780;SDS011;13626;48.128;11.628;2024-03-02T08:46:08;11.88;;;9.93;;
25780;SDS011;13626;48.128;11.628;2024-03-02T08:48:35;12.55;;;9.95;;
25780;SDS011;13626;48.128;11.628;2024-03-02T08:51:03;15.57;;;11.48;;
25780;SDS011;13626;48.128;11.628;2024-03-02T08:53:32;15.32;;;10.38;;
25780;SDS011;13626;48.128;11.628;2024-03-02T08:55:59;13.55;;;10.40;;
25780;SDS011;13626;48.128;11.628;2024-03-02T08:58:28;14.32;;;10.85;;
25780;SDS011;13626;48.128;11.628;2024-03-02T09:00:55;12.48;;;9.80;;
25780;SDS011;13626;48.128;11.628;2024-03-02T09:03:23;11.95;;;9.02;;
25780;SDS011;13626;48.128;11.628;2024-03-02T09:05:50;12.18;;;8.85;;
25780;SDS011;13626;48.128;11.628;2024-03-02T09:08:17;11.65;;;9.18;;
25780;SDS011;13626;48.128;11.628;2024-03-02T09:10:44;11.75;;;8.85;;
25780;SDS011;13626;48.128;11.628;2024-03-02T09:13:12;10.95;;;8.93;;
25780;SDS011;13626;48.128;11.628;2024-03-02T09:15:39;10.43;;;7.70;;
25780;SDS011;13626;48.128;11.628;2024-03-02T09:18:06;11.68;;;8.18;;
25780;SDS011;13626;48.128;11.628;2024-03-02T09:20:34;7.80;;;5.80;;
25780;SDS011;13626;48.128;11.628;2024-03-02T09:23:01;7.15;;;5.78;;
25780;SDS011;13626;48.128;11.628;2024-03-02T09:25:28;7.95;;;6.28;;
25780;SDS011;13626;48.128;11.628;2024-03-02T09:27:55;8.90;;;6.90;;
25780;SDS011;13626;48.128;11.628;2024-03-02T09:30:23;9.02;;;6.60;;
25780;SDS011;13626;48.128;11.628;2024-03-02T09:32:50;8.50;;;7.22;;
25780;SDS011;13626;48.128;11.628;2024-03-02T09:35:38;9.38;;;7.03;;
25780;SDS011;13626;48.128;11.628;2024-03-02T09:38:05;8.48;;;7.50;;
25780;SDS011;13626;48.128;11.628;2024-03-02T09:40:32;9.05;;;7.50;;
25780;SDS011;13626;48.128;11.628;2024-03-02T09:43:00;11.05;;;8.68;;
25780;SDS011;13626;48.128;11.628;2024-03-02T09:45:28;9.43;;;8.20;;
25780;SDS011;13626;48.128;11.628;2024-03-02T09:47:56;10.18;;;9.07;;
25780;SDS011;13626;48.128;11.628;2024-03-02T09:50:23;10.07;;;8.68;;
25780;SDS011;13626;48.128;11.628;2024-03-02T09:52:51;12.25;;;10.15;;
25780;SDS011;13626;48.128;11.628;2024-03-02T09:55:20;11.02;;;8.93;;
25780;SDS011;13626;48.128;11.628;2024-03-02T09:57:48;10.68;;;8.93;;
25780;SDS011;13626;48.128;11.628;2024-03-02T10:00:16;10.85;;;8.52;;
25780;SDS011;13626;48.128;11.628;2024-03-02T10:02:43;9.52;;;8.48;;
25780;SDS011;13626;48.128;11.628;2024-03-02T10:05:12;8.60;;;7.55;;
25780;SDS011;13626;48.128;11.628;2024-03-02T10:07:39;11.13;;;8.77;;
25780;SDS011;13626;48.128;11.628;2024-03-02T10:10:13;10.55;;;8.90;;
25780;SDS011;13626;48.128;11.628;2024-03-02T10:12:41;8.38;;;7.22;;
25780;SDS011;13626;48.128;11.628;2024-03-02T10:15:08;7.85;;;6.78;;
25780;SDS011;13626;48.128;11.628;2024-03-02T10:17:36;8.73;;;6.65;;
25780;SDS011;13626;48.128;11.628;2024-03-02T10:20:25;8.85;;;7.40;;
25780;SDS011;13626;48.128;11.628;2024-03-02T10:22:55;7.45;;;6.70;;
25780;SDS011;13626;48.128;11.628;2024-03-02T10:25:32;9.43;;;7.53;;
25780;SDS011;13626;48.128;11.628;2024-03-02T10:28:02;10.85;;;7.65;;
25780;SDS011;13626;48.128;11.628;2024-03-02T10:30:32;12.60;;;8.80;;
25780;SDS011;13626;48.128;11.628;2024-03-02T10:33:02;10.73;;;8.77;;
25780;SDS011;13626;48.128;11.628;2024-03-02T10:35:30;12.65;;;8.60;;
25780;SDS011;13626;48.128;11.628;2024-03-02T10:37:58;12.63;;;9.85;;
25780;SDS011;13626;48.128;11.628;2024-03-02T10:40:29;13.70;;;10.38;;
25780;SDS011;13626;48.128;11.628;2024-03-02T10:42:56;18.75;;;12.05;;
25780;SDS011;13626;48.128;11.628;2024-03-02T10:45:24;16.63;;;11.48;;
25780;SDS011;13626;48.128;11.628;2024-03-02T10:47:51;18.20;;;12.20;;
25780;SDS011;13626;48.128;11.628;2024-03-02T10:50:19;17.80;;;12.57;;
25780;SDS011;13626;48.128;11.628;2024-03-02T10:52:46;17.95;;;11.48;;
25780;SDS011;13626;48.128;11.628;2024-03-02T10:55:13;16.08;;;11.70;;
25780;SDS011;13626;48.128;11.628;2024-03-02T10:57:42;16.58;;;11.45;;
25780;SDS011;13626;48.128;11.628;2024-03-02T11:00:11;17.65;;;10.93;;
25780;SDS011;13626;48.128;11.628;2024-03-02T11:02:43;16.15;;;11.02;;
25780;SDS011;13626;48.128;11.628;2024-03-02T11:05:12;16.30;;;11.10;;
25780;SDS011;13626;48.128;11.628;2024-03-02T11:07:40;15.25;;;10.18;;
25780;SDS011;13626;48.128;11.628;2024-03-02T11:10:07;16.50;;;9.77;;
25780;SDS011;13626;48.128;11.628;2024-03-02T11:12:36;16.60;;;10.13;;
25780;SDS011;13626;48.128;11.628;2024-03-02T11:15:08;15.82;;;10.77;;
25780;SDS011;13626;48.128;11.628;2024-03-02T11:17:36;19.00;;;11.63;;
25780;SDS011;13626;48.128;11.628;2024-03-02T11:20:05;15.52;;;10.90;;
25780;SDS011;13626;48.128;11.628;2024-03-02T11:22:35;15.32;;;8.82;;
25780;SDS011;13626;48.128;11.628;2024-03-02T11:25:03;12.88;;;8.20;;
25780;SDS011;13626;48.128;11.628;2024-03-02T11:30:57;17.00;;;8.90;;
25780;SDS011;13626;48.128;11.628;2024-03-02T11:33:06;12.80;;;7.72;;
25780;SDS011;13626;48.128;11.628;2024-03-02T11:35:38;10.75;;;7.25;;
25780;SDS011;13626;48.128;11.628;2024-03-02T11:38:14;14.75;;;8.68;;
25780;SDS011;13626;48.128;11.628;2024-03-02T11:40:42;11.75;;;7.55;;
25780;SDS011;13626;48.128;11.628;2024-03-02T11:43:09;12.55;;;8.70;;
25780;SDS011;13626;48.128;11.628;2024-03-02T11:45:38;16.92;;;9.35;;
25780;SDS011;13626;48.128;11.628;2024-03-02T11:48:11;15.00;;;8.68;;
25780;SDS011;13626;48.128;11.628;2024-03-02T11:50:40;11.50;;;6.90;;
25780;SDS011;13626;48.128;11.628;2024-03-02T11:53:08;15.15;;;8.55;;
25780;SDS011;13626;48.128;11.628;2024-03-02T11:55:40;16.40;;;9.30;;
25780;SDS011;13626;48.128;11.628;2024-03-02T11:58:07;14.68;;;8.85;;
25780;SDS011;13626;48.128;11.628;2024-03-02T12:00:35;16.67;;;10.40;;
25780;SDS011;13626;48.128;11.628;2024-03-02T12:03:06;15.27;;;9.35;;
25780;SDS011;13626;48.128;11.628;2024-03-02T12:05:35;15.75;;;8.70;;
25780;SDS011;13626;48.128;11.628;2024-03-02T12:08:03;17.52;;;9.57;;
25780;SDS011;13626;48.128;11.628;2024-03-02T12:10:31;16.27;;;9.40;;
25780;SDS011;13626;48.128;11.628;2024-03-02T12:12:59;14.10;;;8.35;;
25780;SDS011;13626;48.128;11.628;2024-03-02T12:15:29;14.50;;;9.68;;
25780;SDS011;13626;48.128;11.628;2024-03-02T12:17:57;16.80;;;10.48;;
25780;SDS011;13626;48.128;11.628;2024-03-02T12:20:26;13.82;;;8.93;;
25780;SDS011;13626;48.128;11.628;2024-03-02T12:22:54;15.77;;;9.13;;
25780;SDS011;13626;48.128;11.628;2024-03-02T12:25:22;15.13;;;10.27;;
25780;SDS011;13626;48.128;11.628;2024-03-02T12:27:51;15.25;;;9.55;;
25780;SDS011;13626;48.128;11.628;2024-03-02T12:30:18;16.25;;;10.77;;
25780;SDS011;13626;48.128;11.628;2024-03-02T12:32:46;17.65;;;10.57;;
25780;SDS011;13626;48.128;11.628;2024-03-02T12:35:14;22.13;;;15.45;;
25780;SDS011;13626;48.128;11.628;2024-03-02T12:37:50;16.63;;;10.30;;
25780;SDS011;13626;48.128;11.628;2024-03-02T12:40:18;18.40;;;9.77;;
25780;SDS011;13626;48.128;11.628;2024-03-02T12:42:46;13.43;;;9.00;;
25780;SDS011;13626;48.128;11.628;2024-03-02T12:45:14;34.50;;;19.48;;
25780;SDS011;13626;48.128;11.628;2024-03-02T12:47:42;30.70;;;17.92;;
25780;SDS011;13626;48.128;11.628;2024-03-02T12:50:09;17.42;;;10.80;;
25780;SDS011;13626;48.128;11.628;2024-03-02T12:52:37;20.50;;;13.02;;
25780;SDS011;13626;48.128;11.628;2024-03-02T12:55:04;16.90;;;8.70;;
25780;SDS011;13626;48.128;11.628;2024-03-02T12:57:32;14.40;;;9.60;;
25780;SDS011;13626;48.128;11.628;2024-03-02T13:00:01;13.18;;;8.50;;
25780;SDS011;13626;48.128;11.628;2024-03-02T13:02:35;14.30;;;9.43;;
25780;SDS011;13626;48.128;11.628;2024-03-02T13:05:03;12.63;;;9.10;;
25780;SDS011;13626;48.128;11.628;2024-03-02T13:07:30;13.85;;;8.10;;
25780;SDS011;13626;48.128;11.628;2024-03-02T13:09:59;13.57;;;9.00;;
25780;SDS011;13626;48.128;11.628;2024-03-02T13:12:27;18.30;;;11.75;;
25780;SDS011;13626;48.128;11.628;2024-03-02T13:14:54;19.27;;;11.32;;
25780;SDS011;13626;48.128;11.628;2024-03-02T13:17:21;15.30;;;10.25;;
25780;SDS011;13626;48.128;11.628;2024-03-02T13:19:52;16.00;;;10.48;;
25780;SDS011;13626;48.128;11.628;2024-03-02T13:22:20;18.27;;;10.07;;
25780;SDS011;13626;48.128;11.628;2024-03-02T13:24:48;13.57;;;8.40;;
25780;SDS011;13626;48.128;11.628;2024-03-02T13:27:15;13.15;;;7.82;;
25780;SDS011;13626;48.128;11.628;2024-03-02T13:29:46;16.05;;;10.15;;
25780;SDS011;13626;48.128;11.628;2024-03-02T13:32:16;14.05;;;9.75;;
25780;SDS011;13626;48.128;11.628;2024-03-02T13:34:46;18.70;;;10.02;;
25780;SDS011;13626;48.128;11.628;2024-03-02T13:37:14;14.45;;;10.32;;
25780;SDS011;13626;48.128;11.628;2024-03-02T13:39:41;16.98;;;11.38;;
25780;SDS011;13626;48.128;11.628;2024-03-02T13:42:09;19.73;;;11.82;;
25780;SDS011;13626;48.128;11.628;2024-03-02T13:44:38;20.83;;;13.43;;
25780;SDS011;13626;48.128;11.628;2024-03-02T13:47:07;24.02;;;13.38;;
25780;SDS011;13626;48.128;11.628;2024-03-02T13:49:34;17.95;;;11.65;;
25780;SDS011;13626;48.128;11.628;2024-03-02T13:52:09;17.95;;;11.70;;
25780;SDS011;13626;48.128;11.628;2024-03-02T13:54:39;16.27;;;10.55;;
25780;SDS011;13626;48.128;11.628;2024-03-02T13:57:08;14.23;;;9.23;;
25780;SDS011;13626;48.128;11.628;2024-03-02T13:59:36;14.50;;;8.90;;
25780;SDS011;13626;48.128;11.628;2024-03-02T14:02:07;13.68;;;8.90;;
25780;SDS011;13626;48.128;11.628;2024-03-02T14:04:35;15.15;;;9.38;;
25780;SDS011;13626;48.128;11.628;2024-03-02T14:07:04;18.02;;;11.52;;
25780;SDS011;13626;48.128;11.628;2024-03-02T14:09:35;21.38;;;11.02;;
25780;SDS011;13626;48.128;11.628;2024-03-02T14:12:03;19.00;;;11.50;;
25780;SDS011;13626;48.128;11.628;2024-03-02T14:14:31;20.08;;;12.40;;
25780;SDS011;13626;48.128;11.628;2024-03-02T14:16:59;17.38;;;11.20;;
25780;SDS011;13626;48.128;11.628;2024-03-02T14:19:31;23.05;;;13.13;;
25780;SDS011;13626;48.128;11.628;2024-03-02T14:21:59;20.63;;;12.23;;
25780;SDS011;13626;48.128;11.628;2024-03-02T14:24:26;18.95;;;12.15;;
25780;SDS011;13626;48.128;11.628;2024-03-02T14:26:56;18.13;;;11.85;;
25780;SDS011;13626;48.128;11.628;2024-03-02T14:29:45;18.38;;;11.50;;